sensor_id;sensor_type;location;lat;lon;timestamp;pressure;altitude;pressure_sealevel;temperature;humidity
55460;BME280;41326;45.302;-122.946;2023-04-19T00:00:40;100930.16;;;18.45;49.43
55460;BME280;41326;45.302;-122.946;2023-04-19T00:03:11;100928.97;;;18.62;49.17
55460;BME280;41326;45.302;-122.946;2023-04-19T00:05:41;100930.17;;;18.74;49.00
55460;BME280;41326;45.302;-122.946;2023-04-19T00:08:11;100930.63;;;18.84;48.88
55460;BME280;41326;45.302;-122.946;2023-04-19T00:10:41;100931.31;;;18.72;49.37
55460;BME280;41326;45.302;-122.946;2023-04-19T00:13:12;100934.99;;;18.63;49.84
55460;BME280;41326;45.302;-122.946;2023-04-19T00:15:43;100931.22;;;18.72;49.76
55460;BME280;41326;45.302;-122.946;2023-04-19T00:18:14;100922.44;;;18.95;49.34
55460;BME280;41326;45.302;-122.946;2023-04-19T00:20:43;100928.67;;;19.02;49.35
55460;BME280;41326;45.302;-122.946;2023-04-19T00:23:13;100925.83;;;18.87;49.80
55460;BME280;41326;45.302;-122.946;2023-04-19T00:25:44;100930.93;;;18.75;50.16
55460;BME280;41326;45.302;-122.946;2023-04-19T00:28:13;100933.45;;;18.59;50.64
55460;BME280;41326;45.302;-122.946;2023-04-19T00:30:44;100932.19;;;18.68;50.44
55460;BME280;41326;45.302;-122.946;2023-04-19T00:33:14;100925.52;;;18.86;50.03
55460;BME280;41326;45.302;-122.946;2023-04-19T00:35:45;100927.67;;;18.92;49.83
55460;BME280;41326;45.302;-122.946;2023-04-19T00:38:15;100927.92;;;18.94;49.71
55460;BME280;41326;45.302;-122.946;2023-04-19T00:40:45;100927.36;;;18.83;50.07
55460;BME280;41326;45.302;-122.946;2023-04-19T00:43:16;100933.55;;;18.63;50.71
55460;BME280;41326;45.302;-122.946;2023-04-19T00:45:46;100932.43;;;18.57;50.81
55460;BME280;41326;45.302;-122.946;2023-04-19T00:48:17;100932.09;;;18.76;50.34
55460;BME280;41326;45.302;-122.946;2023-04-19T00:50:48;100931.37;;;18.95;50.05
55460;BME280;41326;45.302;-122.946;2023-04-19T00:53:17;100939.54;;;19.10;49.57
55460;BME280;41326;45.302;-122.946;2023-04-19T00:55:47;100937.43;;;18.89;50.24
55460;BME280;41326;45.302;-122.946;2023-04-19T00:58:18;100927.29;;;18.81;50.44
55460;BME280;41326;45.302;-122.946;2023-04-19T01:00:48;100925.76;;;18.71;50.70
55460;BME280;41326;45.302;-122.946;2023-04-19T01:03:18;100926.38;;;18.64;51.11
55460;BME280;41326;45.302;-122.946;2023-04-19T01:05:49;100925.04;;;18.56;51.83
55460;BME280;41326;45.302;-122.946;2023-04-19T01:08:19;100924.42;;;18.50;52.10
55460;BME280;41326;45.302;-122.946;2023-04-19T01:10:49;100924.42;;;18.43;52.43
55460;BME280;41326;45.302;-122.946;2023-04-19T01:13:20;100921.73;;;18.42;52.65
55460;BME280;41326;45.302;-122.946;2023-04-19T01:15:50;100922.22;;;18.39;52.74
55460;BME280;41326;45.302;-122.946;2023-04-19T01:18:21;100926.44;;;18.36;52.64
55460;BME280;41326;45.302;-122.946;2023-04-19T01:20:51;100922.68;;;18.42;52.35
55460;BME280;41326;45.302;-122.946;2023-04-19T01:23:21;100926.83;;;18.57;51.97
55460;BME280;41326;45.302;-122.946;2023-04-19T01:25:51;100930.52;;;18.82;51.26
55460;BME280;41326;45.302;-122.946;2023-04-19T01:28:21;100931.78;;;18.87;51.15
55460;BME280;41326;45.302;-122.946;2023-04-19T01:30:53;100932.20;;;18.68;51.71
55460;BME280;41326;45.302;-122.946;2023-04-19T01:33:23;100932.77;;;18.60;51.93
55460;BME280;41326;45.302;-122.946;2023-04-19T01:35:53;100935.46;;;18.49;52.12
55460;BME280;41326;45.302;-122.946;2023-04-19T01:38:23;100939.84;;;18.47;52.19
55460;BME280;41326;45.302;-122.946;2023-04-19T01:40:53;100942.48;;;18.47;52.12
55460;BME280;41326;45.302;-122.946;2023-04-19T01:43:24;100948.18;;;18.43;52.23
55460;BME280;41326;45.302;-122.946;2023-04-19T01:45:54;100960.40;;;18.37;52.55
55460;BME280;41326;45.302;-122.946;2023-04-19T01:48:24;100956.65;;;18.38;52.64
55460;BME280;41326;45.302;-122.946;2023-04-19T01:50:54;100952.36;;;18.55;52.30
55460;BME280;41326;45.302;-122.946;2023-04-19T01:53:25;100949.37;;;18.78;51.63
55460;BME280;41326;45.302;-122.946;2023-04-19T01:55:55;100943.55;;;18.87;51.30
55460;BME280;41326;45.302;-122.946;2023-04-19T01:58:25;100942.49;;;18.80;51.32
55460;BME280;41326;45.302;-122.946;2023-04-19T02:00:55;100944.54;;;18.71;51.46
55460;BME280;41326;45.302;-122.946;2023-04-19T02:03:26;100945.84;;;18.64;51.81
55460;BME280;41326;45.302;-122.946;2023-04-19T02:05:56;100944.38;;;18.56;52.01
55460;BME280;41326;45.302;-122.946;2023-04-19T02:08:27;100942.85;;;18.51;52.06
55460;BME280;41326;45.302;-122.946;2023-04-19T02:10:57;100940.17;;;18.46;52.39
55460;BME280;41326;45.302;-122.946;2023-04-19T02:13:27;100938.39;;;18.52;51.90
55460;BME280;41326;45.302;-122.946;2023-04-19T02:15:57;100944.19;;;18.76;51.58
55460;BME280;41326;45.302;-122.946;2023-04-19T02:18:27;100942.42;;;18.95;50.88
55460;BME280;41326;45.302;-122.946;2023-04-19T02:20:59;100941.98;;;19.00;50.53
55460;BME280;41326;45.302;-122.946;2023-04-19T02:23:27;100942.58;;;18.96;50.74
55460;BME280;41326;45.302;-122.946;2023-04-19T02:25:58;100945.96;;;18.74;51.46
55460;BME280;41326;45.302;-122.946;2023-04-19T02:28:28;100937.50;;;18.67;51.76
55460;BME280;41326;45.302;-122.946;2023-04-19T02:31:02;100936.83;;;18.59;51.91
55460;BME280;41326;45.302;-122.946;2023-04-19T02:33:30;100935.63;;;18.48;52.30
55460;BME280;41326;45.302;-122.946;2023-04-19T02:36:00;100929.54;;;18.41;52.88
55460;BME280;41326;45.302;-122.946;2023-04-19T02:38:30;100930.47;;;18.40;52.99
55460;BME280;41326;45.302;-122.946;2023-04-19T02:41:00;100929.22;;;18.37;53.13
55460;BME280;41326;45.302;-122.946;2023-04-19T02:43:31;100931.64;;;18.33;53.37
55460;BME280;41326;45.302;-122.946;2023-04-19T02:46:01;100934.49;;;18.30;53.35
55460;BME280;41326;45.302;-122.946;2023-04-19T02:48:31;100937.91;;;18.25;53.55
55460;BME280;41326;45.302;-122.946;2023-04-19T02:51:02;100942.20;;;18.22;53.56
55460;BME280;41326;45.302;-122.946;2023-04-19T02:53:32;100941.62;;;18.22;53.59
55460;BME280;41326;45.302;-122.946;2023-04-19T02:56:02;100954.52;;;18.21;53.48
55460;BME280;41326;45.302;-122.946;2023-04-19T02:58:33;100952.57;;;18.28;53.28
55460;BME280;41326;45.302;-122.946;2023-04-19T03:01:03;100948.62;;;18.46;52.73
55460;BME280;41326;45.302;-122.946;2023-04-19T03:03:33;100951.40;;;18.66;52.21
55460;BME280;41326;45.302;-122.946;2023-04-19T03:06:04;100952.13;;;18.71;52.00
55460;BME280;41326;45.302;-122.946;2023-04-19T03:08:35;100947.54;;;18.68;52.12
55460;BME280;41326;45.302;-122.946;2023-04-19T03:11:05;100950.00;;;18.55;52.35
55460;BME280;41326;45.302;-122.946;2023-04-19T03:13:36;100948.02;;;18.48;52.62
55460;BME280;41326;45.302;-122.946;2023-04-19T03:16:06;100948.41;;;18.42;52.71
55460;BME280;41326;45.302;-122.946;2023-04-19T03:18:36;100950.83;;;18.41;52.58
55460;BME280;41326;45.302;-122.946;2023-04-19T03:21:07;100950.65;;;18.35;52.75
55460;BME280;41326;45.302;-122.946;2023-04-19T03:23:37;100950.52;;;18.32;52.88
55460;BME280;41326;45.302;-122.946;2023-04-19T03:26:07;100955.19;;;18.33;52.72
55460;BME280;41326;45.302;-122.946;2023-04-19T03:28:38;100959.24;;;18.30;52.99
55460;BME280;41326;45.302;-122.946;2023-04-19T03:31:08;100962.81;;;18.24;53.02
55460;BME280;41326;45.302;-122.946;2023-04-19T03:33:38;100965.10;;;18.20;53.13
55460;BME280;41326;45.302;-122.946;2023-04-19T03:36:09;100965.49;;;18.18;53.14
55460;BME280;41326;45.302;-122.946;2023-04-19T03:38:39;100969.88;;;18.31;52.62
55460;BME280;41326;45.302;-122.946;2023-04-19T03:43:40;100971.68;;;18.75;51.26
55460;BME280;41326;45.302;-122.946;2023-04-19T03:46:10;100975.92;;;18.75;51.48
55460;BME280;41326;45.302;-122.946;2023-04-19T03:48:40;100976.31;;;18.66;51.70
55460;BME280;41326;45.302;-122.946;2023-04-19T03:51:11;100980.98;;;18.50;52.21
55460;BME280;41326;45.302;-122.946;2023-04-19T03:53:41;100983.70;;;18.48;52.17
55460;BME280;41326;45.302;-122.946;2023-04-19T03:56:11;100985.27;;;18.46;52.04
55460;BME280;41326;45.302;-122.946;2023-04-19T03:58:42;100989.18;;;18.42;52.13
55460;BME280;41326;45.302;-122.946;2023-04-19T04:01:16;100991.05;;;18.34;52.30
55460;BME280;41326;45.302;-122.946;2023-04-19T04:03:43;100994.64;;;18.31;52.58
55460;BME280;41326;45.302;-122.946;2023-04-19T04:06:13;100993.68;;;18.27;52.55
55460;BME280;41326;45.302;-122.946;2023-04-19T04:08:43;100991.14;;;18.25;52.47
55460;BME280;41326;45.302;-122.946;2023-04-19T04:11:14;100994.23;;;18.21;52.70
55460;BME280;41326;45.302;-122.946;2023-04-19T04:13:44;100992.88;;;18.17;52.73
55460;BME280;41326;45.302;-122.946;2023-04-19T04:16:14;100995.21;;;18.14;52.81
55460;BME280;41326;45.302;-122.946;2023-04-19T04:18:45;100996.65;;;18.15;52.60
55460;BME280;41326;45.302;-122.946;2023-04-19T04:21:16;100994.47;;;18.11;52.64
55460;BME280;41326;45.302;-122.946;2023-04-19T04:23:46;100995.07;;;18.09;52.61
55460;BME280;41326;45.302;-122.946;2023-04-19T04:26:16;100996.92;;;18.06;52.89
55460;BME280;41326;45.302;-122.946;2023-04-19T04:28:47;100995.98;;;17.99;53.00
55460;BME280;41326;45.302;-122.946;2023-04-19T04:31:18;100996.63;;;17.99;52.84
55460;BME280;41326;45.302;-122.946;2023-04-19T04:33:48;100996.80;;;17.93;52.98
55460;BME280;41326;45.302;-122.946;2023-04-19T04:36:19;100997.81;;;17.90;53.08
55460;BME280;41326;45.302;-122.946;2023-04-19T04:38:49;100997.42;;;17.92;52.82
55460;BME280;41326;45.302;-122.946;2023-04-19T04:41:19;100996.93;;;17.94;52.75
55460;BME280;41326;45.302;-122.946;2023-04-19T04:43:50;100999.07;;;17.87;53.03
55460;BME280;41326;45.302;-122.946;2023-04-19T04:46:20;101000.60;;;17.88;53.03
55460;BME280;41326;45.302;-122.946;2023-04-19T04:48:51;101001.45;;;17.82;52.99
55460;BME280;41326;45.302;-122.946;2023-04-19T04:51:21;101000.73;;;17.83;53.04
55460;BME280;41326;45.302;-122.946;2023-04-19T04:53:51;101002.00;;;17.77;53.14
55460;BME280;41326;45.302;-122.946;2023-04-19T04:56:22;100997.32;;;17.71;53.22
55460;BME280;41326;45.302;-122.946;2023-04-19T04:58:52;100999.35;;;17.76;52.89
55460;BME280;41326;45.302;-122.946;2023-04-19T05:01:23;100996.30;;;17.69;53.10
55460;BME280;41326;45.302;-122.946;2023-04-19T05:03:52;100999.28;;;17.70;53.19
55460;BME280;41326;45.302;-122.946;2023-04-19T05:06:23;100996.43;;;17.67;53.35
55460;BME280;41326;45.302;-122.946;2023-04-19T05:08:53;100990.68;;;17.66;53.33
55460;BME280;41326;45.302;-122.946;2023-04-19T05:11:23;100989.99;;;17.68;53.19
55460;BME280;41326;45.302;-122.946;2023-04-19T05:13:54;100992.55;;;17.63;53.25
55460;BME280;41326;45.302;-122.946;2023-04-19T05:16:25;100993.38;;;17.61;53.14
55460;BME280;41326;45.302;-122.946;2023-04-19T05:18:54;100993.43;;;17.61;53.14
55460;BME280;41326;45.302;-122.946;2023-04-19T05:21:26;100994.45;;;17.63;53.17
55460;BME280;41326;45.302;-122.946;2023-04-19T05:23:55;100996.32;;;17.58;53.24
55460;BME280;41326;45.302;-122.946;2023-04-19T05:26:26;101001.48;;;17.56;53.38
55460;BME280;41326;45.302;-122.946;2023-04-19T05:28:56;101003.93;;;17.54;53.46
55460;BME280;41326;45.302;-122.946;2023-04-19T05:31:26;101005.15;;;17.56;53.30
55460;BME280;41326;45.302;-122.946;2023-04-19T05:33:56;101006.42;;;17.54;53.43
55460;BME280;41326;45.302;-122.946;2023-04-19T05:36:27;101011.28;;;17.60;53.20
55460;BME280;41326;45.302;-122.946;2023-04-19T05:38:57;101013.27;;;17.63;53.12
55460;BME280;41326;45.302;-122.946;2023-04-19T05:41:27;101009.79;;;17.55;53.34
55460;BME280;41326;45.302;-122.946;2023-04-19T05:43:58;101011.34;;;17.47;53.67
55460;BME280;41326;45.302;-122.946;2023-04-19T05:46:28;101010.84;;;17.51;53.57
55460;BME280;41326;45.302;-122.946;2023-04-19T05:48:58;101007.24;;;17.49;53.51
55460;BME280;41326;45.302;-122.946;2023-04-19T05:52:36;101007.75;;;17.41;53.91
55460;BME280;41326;45.302;-122.946;2023-04-19T05:55:06;101003.61;;;17.43;53.74
55460;BME280;41326;45.302;-122.946;2023-04-19T05:57:36;101002.71;;;17.38;53.79
55460;BME280;41326;45.302;-122.946;2023-04-19T06:00:07;101007.26;;;17.36;53.84
55460;BME280;41326;45.302;-122.946;2023-04-19T06:02:37;101007.00;;;17.36;53.71
55460;BME280;41326;45.302;-122.946;2023-04-19T06:05:08;101006.41;;;17.38;53.80
55460;BME280;41326;45.302;-122.946;2023-04-19T06:07:38;101008.22;;;17.35;53.86
55460;BME280;41326;45.302;-122.946;2023-04-19T06:10:09;101009.89;;;17.33;53.93
55460;BME280;41326;45.302;-122.946;2023-04-19T06:12:39;101005.65;;;17.32;53.92
55460;BME280;41326;45.302;-122.946;2023-04-19T06:15:10;101006.66;;;17.33;53.82
55460;BME280;41326;45.302;-122.946;2023-04-19T06:17:39;101006.67;;;17.29;53.87
55460;BME280;41326;45.302;-122.946;2023-04-19T06:20:11;101000.66;;;17.30;53.79
55460;BME280;41326;45.302;-122.946;2023-04-19T06:22:47;101003.14;;;17.26;53.91
55460;BME280;41326;45.302;-122.946;2023-04-19T06:25:11;101005.39;;;17.24;53.97
55460;BME280;41326;45.302;-122.946;2023-04-19T06:27:41;101005.78;;;17.26;53.88
55460;BME280;41326;45.302;-122.946;2023-04-19T06:30:12;101001.64;;;17.20;54.04
55460;BME280;41326;45.302;-122.946;2023-04-19T06:32:41;101003.93;;;17.19;54.07
55460;BME280;41326;45.302;-122.946;2023-04-19T06:35:13;101008.02;;;17.15;54.13
55460;BME280;41326;45.302;-122.946;2023-04-19T06:37:42;101010.73;;;17.14;54.09
55460;BME280;41326;45.302;-122.946;2023-04-19T06:40:13;101007.88;;;17.12;54.04
55460;BME280;41326;45.302;-122.946;2023-04-19T06:42:43;101007.22;;;17.13;54.05
55460;BME280;41326;45.302;-122.946;2023-04-19T06:45:14;101007.12;;;17.10;54.14
55460;BME280;41326;45.302;-122.946;2023-04-19T06:47:43;101007.66;;;17.16;53.89
55460;BME280;41326;45.302;-122.946;2023-04-19T06:50:14;101005.85;;;17.11;54.03
55460;BME280;41326;45.302;-122.946;2023-04-19T06:52:44;101008.18;;;17.06;54.22
55460;BME280;41326;45.302;-122.946;2023-04-19T06:55:14;101007.31;;;17.08;54.10
55460;BME280;41326;45.302;-122.946;2023-04-19T06:57:44;101008.95;;;17.11;53.88
55460;BME280;41326;45.302;-122.946;2023-04-19T07:00:16;101010.25;;;17.06;54.03
55460;BME280;41326;45.302;-122.946;2023-04-19T07:02:45;101011.91;;;17.04;54.11
55460;BME280;41326;45.302;-122.946;2023-04-19T07:05:15;101007.21;;;17.05;54.12
55460;BME280;41326;45.302;-122.946;2023-04-19T07:07:46;101006.44;;;17.05;54.08
55460;BME280;41326;45.302;-122.946;2023-04-19T07:10:16;101002.54;;;17.00;54.17
55460;BME280;41326;45.302;-122.946;2023-04-19T07:12:46;101007.75;;;16.99;54.20
55460;BME280;41326;45.302;-122.946;2023-04-19T07:15:17;101009.89;;;16.98;54.24
55460;BME280;41326;45.302;-122.946;2023-04-19T07:17:47;101009.14;;;16.97;54.16
55460;BME280;41326;45.302;-122.946;2023-04-19T07:20:17;101009.14;;;16.96;54.18
55460;BME280;41326;45.302;-122.946;2023-04-19T07:22:48;101008.15;;;16.91;54.37
55460;BME280;41326;45.302;-122.946;2023-04-19T07:25:19;101009.01;;;16.91;54.35
55460;BME280;41326;45.302;-122.946;2023-04-19T07:27:48;101008.58;;;16.92;54.32
55460;BME280;41326;45.302;-122.946;2023-04-19T07:30:19;101012.45;;;16.89;54.38
55460;BME280;41326;45.302;-122.946;2023-04-19T07:32:50;101011.26;;;16.89;54.36
55460;BME280;41326;45.302;-122.946;2023-04-19T07:35:20;101012.17;;;16.87;54.41
55460;BME280;41326;45.302;-122.946;2023-04-19T07:37:50;101009.95;;;16.86;54.38
55460;BME280;41326;45.302;-122.946;2023-04-19T07:40:20;101010.50;;;16.83;54.38
55460;BME280;41326;45.302;-122.946;2023-04-19T07:42:50;101012.49;;;16.81;54.42
55460;BME280;41326;45.302;-122.946;2023-04-19T07:45:21;101011.50;;;16.82;54.37
55460;BME280;41326;45.302;-122.946;2023-04-19T07:47:51;101011.86;;;16.79;54.47
55460;BME280;41326;45.302;-122.946;2023-04-19T07:50:23;101015.37;;;16.76;54.56
55460;BME280;41326;45.302;-122.946;2023-04-19T07:52:52;101019.16;;;16.73;54.65
55460;BME280;41326;45.302;-122.946;2023-04-19T07:55:22;101020.24;;;16.74;54.52
55460;BME280;41326;45.302;-122.946;2023-04-19T07:57:53;101021.05;;;16.72;54.53
55460;BME280;41326;45.302;-122.946;2023-04-19T08:00:23;101024.11;;;16.71;54.57
55460;BME280;41326;45.302;-122.946;2023-04-19T08:02:55;101020.34;;;16.69;54.60
55460;BME280;41326;45.302;-122.946;2023-04-19T08:05:24;101015.61;;;16.69;54.58
55460;BME280;41326;45.302;-122.946;2023-04-19T08:07:56;101015.48;;;16.72;54.45
55460;BME280;41326;45.302;-122.946;2023-04-19T08:10:25;101017.15;;;16.68;54.56
55460;BME280;41326;45.302;-122.946;2023-04-19T08:12:55;101015.22;;;16.64;54.66
55460;BME280;41326;45.302;-122.946;2023-04-19T08:15:25;101011.29;;;16.62;54.71
55460;BME280;41326;45.302;-122.946;2023-04-19T08:17:56;101011.94;;;16.63;54.59
55460;BME280;41326;45.302;-122.946;2023-04-19T08:20:26;101006.66;;;16.66;54.49
55460;BME280;41326;45.302;-122.946;2023-04-19T08:22:58;101006.50;;;16.64;54.51
55460;BME280;41326;45.302;-122.946;2023-04-19T08:25:27;101011.60;;;16.60;54.64
55460;BME280;41326;45.302;-122.946;2023-04-19T08:27:57;101014.12;;;16.60;54.60
55460;BME280;41326;45.302;-122.946;2023-04-19T08:30:28;101015.70;;;16.59;54.53
55460;BME280;41326;45.302;-122.946;2023-04-19T08:32:58;101014.42;;;16.55;54.69
55460;BME280;41326;45.302;-122.946;2023-04-19T08:35:28;101017.07;;;16.56;54.58
55460;BME280;41326;45.302;-122.946;2023-04-19T08:37:59;101020.32;;;16.51;54.71
55460;BME280;41326;45.302;-122.946;2023-04-19T08:40:29;101016.05;;;16.51;54.65
55460;BME280;41326;45.302;-122.946;2023-04-19T08:43:04;101014.25;;;16.52;54.63
55460;BME280;41326;45.302;-122.946;2023-04-19T08:45:31;101012.15;;;16.47;54.72
55460;BME280;41326;45.302;-122.946;2023-04-19T08:48:01;101011.13;;;16.46;54.75
55460;BME280;41326;45.302;-122.946;2023-04-19T08:50:31;101011.82;;;16.43;54.80
55460;BME280;41326;45.302;-122.946;2023-04-19T08:53:03;101013.39;;;16.45;54.75
55460;BME280;41326;45.302;-122.946;2023-04-19T08:55:32;101012.95;;;16.42;54.86
55460;BME280;41326;45.302;-122.946;2023-04-19T08:58:02;101015.41;;;16.39;54.84
55460;BME280;41326;45.302;-122.946;2023-04-19T09:00:32;101019.52;;;16.41;54.74
55460;BME280;41326;45.302;-122.946;2023-04-19T09:03:03;101019.89;;;16.39;54.82
55460;BME280;41326;45.302;-122.946;2023-04-19T09:05:33;101024.25;;;16.39;54.80
55460;BME280;41326;45.302;-122.946;2023-04-19T09:10:33;101029.33;;;16.40;54.82
55460;BME280;41326;45.302;-122.946;2023-04-19T09:13:05;101025.18;;;16.33;55.02
55460;BME280;41326;45.302;-122.946;2023-04-19T09:15:39;101020.18;;;16.29;55.11
55460;BME280;41326;45.302;-122.946;2023-04-19T09:18:09;101017.77;;;16.31;55.01
55460;BME280;41326;45.302;-122.946;2023-04-19T09:20:40;101025.42;;;16.29;55.00
55460;BME280;41326;45.302;-122.946;2023-04-19T09:23:09;101018.98;;;16.31;54.90
55460;BME280;41326;45.302;-122.946;2023-04-19T09:25:36;101029.44;;;16.28;55.01
55460;BME280;41326;45.302;-122.946;2023-04-19T09:28:10;101027.95;;;16.28;54.94
55460;BME280;41326;45.302;-122.946;2023-04-19T09:30:36;101026.83;;;16.28;54.91
55460;BME280;41326;45.302;-122.946;2023-04-19T09:33:06;101029.73;;;16.24;55.00
55460;BME280;41326;45.302;-122.946;2023-04-19T09:35:41;101032.11;;;16.29;54.84
55460;BME280;41326;45.302;-122.946;2023-04-19T09:38:07;101032.04;;;16.25;54.82
55460;BME280;41326;45.302;-122.946;2023-04-19T09:40:38;101027.29;;;16.27;54.66
55460;BME280;41326;45.302;-122.946;2023-04-19T09:43:08;101027.70;;;16.24;54.78
55460;BME280;41326;45.302;-122.946;2023-04-19T09:45:43;101030.18;;;16.22;54.85
55460;BME280;41326;45.302;-122.946;2023-04-19T09:48:10;101030.10;;;16.24;54.73
55460;BME280;41326;45.302;-122.946;2023-04-19T09:53:09;101030.18;;;16.17;54.88
55460;BME280;41326;45.302;-122.946;2023-04-19T09:55:40;101032.56;;;16.12;54.98
55460;BME280;41326;45.302;-122.946;2023-04-19T09:58:10;101031.46;;;16.15;54.81
55460;BME280;41326;45.302;-122.946;2023-04-19T10:00:40;101036.20;;;16.18;54.68
55460;BME280;41326;45.302;-122.946;2023-04-19T10:03:11;101040.94;;;16.14;54.77
55460;BME280;41326;45.302;-122.946;2023-04-19T10:05:42;101045.62;;;16.17;54.64
55460;BME280;41326;45.302;-122.946;2023-04-19T10:08:13;101051.72;;;16.13;54.73
55460;BME280;41326;45.302;-122.946;2023-04-19T10:10:42;101054.40;;;16.12;54.71
55460;BME280;41326;45.302;-122.946;2023-04-19T10:13:17;101057.75;;;16.11;54.78
55460;BME280;41326;45.302;-122.946;2023-04-19T10:15:43;101061.99;;;16.10;54.75
55460;BME280;41326;45.302;-122.946;2023-04-19T10:18:13;101067.36;;;16.10;54.70
55460;BME280;41326;45.302;-122.946;2023-04-19T10:20:49;101066.82;;;16.08;54.70
55460;BME280;41326;45.302;-122.946;2023-04-19T10:23:14;101071.83;;;16.07;54.75
55460;BME280;41326;45.302;-122.946;2023-04-19T10:25:45;101074.47;;;16.07;54.72
55460;BME280;41326;45.302;-122.946;2023-04-19T10:28:15;101076.84;;;16.07;54.72
55460;BME280;41326;45.302;-122.946;2023-04-19T10:30:52;101080.95;;;16.06;54.68
55460;BME280;41326;45.302;-122.946;2023-04-19T10:33:15;101085.43;;;16.05;54.68
55460;BME280;41326;45.302;-122.946;2023-04-19T10:35:49;101088.17;;;16.03;54.70
55460;BME280;41326;45.302;-122.946;2023-04-19T10:38:16;101087.38;;;16.02;54.69
55460;BME280;41326;45.302;-122.946;2023-04-19T10:40:54;101093.79;;;15.96;54.84
55460;BME280;41326;45.302;-122.946;2023-04-19T10:43:20;101096.47;;;15.99;54.75
55460;BME280;41326;45.302;-122.946;2023-04-19T10:45:46;101100.75;;;15.99;54.78
55460;BME280;41326;45.302;-122.946;2023-04-19T10:50:57;101104.35;;;15.97;54.73
55460;BME280;41326;45.302;-122.946;2023-04-19T10:55:52;101109.49;;;15.92;54.82
55460;BME280;41326;45.302;-122.946;2023-04-19T10:58:18;101110.01;;;15.93;54.73
55460;BME280;41326;45.302;-122.946;2023-04-19T11:00:48;101108.90;;;15.92;54.72
55460;BME280;41326;45.302;-122.946;2023-04-19T11:08:24;101104.62;;;15.93;54.66
55460;BME280;41326;45.302;-122.946;2023-04-19T11:10:50;101102.45;;;15.90;54.72
55460;BME280;41326;45.302;-122.946;2023-04-19T11:13:21;101106.18;;;15.85;54.88
55460;BME280;41326;45.302;-122.946;2023-04-19T11:15:50;101109.04;;;15.88;54.74
55460;BME280;41326;45.302;-122.946;2023-04-19T11:20:52;101110.74;;;15.88;54.62
55460;BME280;41326;45.302;-122.946;2023-04-19T11:23:21;101110.94;;;15.88;54.66
55460;BME280;41326;45.302;-122.946;2023-04-19T11:25:51;101109.25;;;15.82;54.82
55460;BME280;41326;45.302;-122.946;2023-04-19T11:28:21;101111.22;;;15.82;54.76
55460;BME280;41326;45.302;-122.946;2023-04-19T11:30:52;101107.83;;;15.80;54.82
55460;BME280;41326;45.302;-122.946;2023-04-19T11:33:24;101110.45;;;15.77;54.89
55460;BME280;41326;45.302;-122.946;2023-04-19T11:35:52;101116.69;;;15.75;54.93
55460;BME280;41326;45.302;-122.946;2023-04-19T11:38:22;101128.00;;;15.76;54.80
55460;BME280;41326;45.302;-122.946;2023-04-19T11:40:57;101133.38;;;15.74;54.83
55460;BME280;41326;45.302;-122.946;2023-04-19T11:43:23;101134.11;;;15.73;54.91
55460;BME280;41326;45.302;-122.946;2023-04-19T11:45:53;101139.77;;;15.74;54.85
55460;BME280;41326;45.302;-122.946;2023-04-19T11:48:23;101142.47;;;15.73;54.84
55460;BME280;41326;45.302;-122.946;2023-04-19T11:50:56;101143.37;;;15.72;54.85
55460;BME280;41326;45.302;-122.946;2023-04-19T11:53:26;101142.33;;;15.70;54.90
55460;BME280;41326;45.302;-122.946;2023-04-19T11:55:56;101145.36;;;15.71;54.86
55460;BME280;41326;45.302;-122.946;2023-04-19T11:58:30;101152.18;;;15.71;54.81
55460;BME280;41326;45.302;-122.946;2023-04-19T12:00:55;101157.00;;;15.69;54.82
55460;BME280;41326;45.302;-122.946;2023-04-19T12:03:26;101162.68;;;15.67;54.92
55460;BME280;41326;45.302;-122.946;2023-04-19T12:06:00;101166.52;;;15.69;54.79
55460;BME280;41326;45.302;-122.946;2023-04-19T12:08:31;101170.08;;;15.69;54.80
55460;BME280;41326;45.302;-122.946;2023-04-19T12:11:01;101168.90;;;15.66;54.88
55460;BME280;41326;45.302;-122.946;2023-04-19T12:13:26;101166.76;;;15.62;54.94
55460;BME280;41326;45.302;-122.946;2023-04-19T12:15:57;101168.94;;;15.65;54.83
55460;BME280;41326;45.302;-122.946;2023-04-19T12:18:26;101173.36;;;15.58;55.01
55460;BME280;41326;45.302;-122.946;2023-04-19T12:20:57;101177.12;;;15.62;54.92
55460;BME280;41326;45.302;-122.946;2023-04-19T12:23:28;101185.19;;;15.63;54.89
55460;BME280;41326;45.302;-122.946;2023-04-19T12:26:02;101189.01;;;15.61;54.89
55460;BME280;41326;45.302;-122.946;2023-04-19T12:28:28;101188.14;;;15.62;54.82
55460;BME280;41326;45.302;-122.946;2023-04-19T12:31:00;101190.62;;;15.60;54.85
55460;BME280;41326;45.302;-122.946;2023-04-19T12:33:29;101193.40;;;15.57;54.92
55460;BME280;41326;45.302;-122.946;2023-04-19T12:36:00;101189.87;;;15.54;54.95
55460;BME280;41326;45.302;-122.946;2023-04-19T12:38:31;101171.14;;;15.52;55.01
55460;BME280;41326;45.302;-122.946;2023-04-19T12:41:00;101169.92;;;15.51;55.04
55460;BME280;41326;45.302;-122.946;2023-04-19T12:43:31;101179.80;;;15.54;54.91
55460;BME280;41326;45.302;-122.946;2023-04-19T12:46:01;101195.02;;;15.51;54.93
55460;BME280;41326;45.302;-122.946;2023-04-19T12:48:32;101204.66;;;15.50;54.94
55460;BME280;41326;45.302;-122.946;2023-04-19T12:51:02;101208.52;;;15.49;54.93
55460;BME280;41326;45.302;-122.946;2023-04-19T12:53:32;101211.82;;;15.45;55.00
55460;BME280;41326;45.302;-122.946;2023-04-19T12:56:03;101217.33;;;15.49;54.76